createdAt,value
2022-11-12T00:02:00.846Z,102626.41
2022-11-12T00:04:49.364Z,102629.25
2022-11-12T00:07:36.482Z,102625.63
2022-11-12T00:10:23.581Z,102626.75
2022-11-12T00:13:11.398Z,102631.63
2022-11-12T00:15:58.362Z,102628.41
2022-11-12T00:18:44.981Z,102606.13
2022-11-12T00:21:33.139Z,102629.44
2022-11-12T00:24:20.197Z,102626.97
2022-11-12T00:27:07.212Z,102626.00
2022-11-12T00:29:54.172Z,102622.94
2022-11-12T00:32:41.403Z,102622.34
2022-11-12T00:35:28.908Z,102552.00
2022-11-12T00:38:17.281Z,102592.56
2022-11-12T00:41:04.681Z,102599.63
2022-11-12T00:43:52.116Z,102610.63
2022-11-12T00:46:39.687Z,102616.81
2022-11-12T00:49:26.860Z,102608.22
2022-11-12T00:52:14.232Z,102606.50
2022-11-12T00:55:02.373Z,102606.59
2022-11-12T00:57:49.191Z,102609.44
2022-11-12T01:00:36.244Z,102605.91
2022-11-12T01:03:23.178Z,102604.28
2022-11-12T01:06:12.138Z,102605.13
2022-11-12T01:08:58.868Z,102595.31
2022-11-12T01:11:48.218Z,102595.41
2022-11-12T01:14:35.522Z,102535.25
2022-11-12T01:17:22.678Z,102595.50
2022-11-12T01:20:10.125Z,102591.13
2022-11-12T01:22:57.184Z,102586.97
2022-11-12T01:25:44.076Z,102590.69
2022-11-12T01:28:32.393Z,102593.47
2022-11-12T01:31:21.437Z,102558.78
2022-11-12T01:34:10.356Z,102590.38
2022-11-12T01:36:57.394Z,102581.59
2022-11-12T01:39:44.407Z,102575.50
2022-11-12T01:42:33.162Z,102573.94
2022-11-12T01:45:22.535Z,102566.69
2022-11-12T01:48:22.424Z,102553.88
2022-11-12T01:51:11.254Z,102583.84
2022-11-12T01:54:01.392Z,102579.09
2022-11-12T01:56:50.164Z,102582.72
2022-11-12T01:59:43.018Z,102574.91
2022-11-12T02:02:32.285Z,102541.41
2022-11-12T02:05:20.248Z,102573.53
2022-11-12T02:08:11.113Z,102577.19
2022-11-12T02:10:58.157Z,102576.84
2022-11-12T02:14:05.348Z,102574.09
2022-11-12T02:16:52.115Z,102577.72
2022-11-12T02:19:40.533Z,102568.75
2022-11-12T02:22:29.138Z,102559.13
2022-11-12T02:25:20.001Z,102576.25
2022-11-12T02:28:09.256Z,102569.38
2022-11-12T02:30:56.341Z,102561.53
2022-11-12T02:33:43.302Z,102564.13
2022-11-12T02:36:30.557Z,102555.44
2022-11-12T02:39:18.897Z,102555.53
2022-11-12T02:42:05.926Z,102554.66
2022-11-12T02:44:53.402Z,102550.19
2022-11-12T02:47:40.579Z,102551.25
2022-11-12T02:50:27.469Z,102547.13
2022-11-12T02:53:14.857Z,102555.13
2022-11-12T02:56:03.496Z,102545.25
2022-11-12T02:58:50.254Z,102544.47
2022-11-12T03:01:37.383Z,102534.84
2022-11-12T03:04:24.166Z,102529.50
2022-11-12T03:07:10.960Z,102525.97
2022-11-12T03:09:57.633Z,102522.19
2022-11-12T03:12:46.577Z,102525.13
2022-11-12T03:15:33.433Z,102511.47
2022-11-12T03:18:20.138Z,102505.72
2022-11-12T03:21:07.691Z,102512.56
2022-11-12T03:23:54.914Z,102515.06
2022-11-12T03:26:41.902Z,102505.44
2022-11-12T03:29:30.129Z,102510.94
2022-11-12T03:32:17.468Z,102509.34
2022-11-12T03:35:04.260Z,102510.28
2022-11-12T03:37:51.286Z,102504.34
2022-11-12T03:40:38.821Z,102506.25
2022-11-12T03:43:25.637Z,102516.91
2022-11-12T03:46:13.827Z,102515.09
2022-11-12T03:49:02.461Z,102517.00
2022-11-12T03:51:49.154Z,102512.53
2022-11-12T03:54:36.289Z,102512.53
2022-11-12T03:57:23.257Z,102514.75
2022-11-12T04:00:13.041Z,102517.41
2022-11-12T04:03:01.289Z,102515.69
2022-11-12T04:06:07.561Z,102506.53
2022-11-12T04:08:54.373Z,102516.81
2022-11-12T04:11:41.179Z,102524.09
2022-11-12T04:14:27.982Z,102517.09
2022-11-12T04:17:32.819Z,102515.38
2022-11-12T04:20:38.818Z,102519.22
2022-11-12T04:23:25.761Z,102524.91
2022-11-12T04:26:23.855Z,102531.00
2022-11-12T04:29:35.042Z,102516.28
2022-11-12T04:32:25.509Z,102505.72
2022-11-12T04:35:12.280Z,102539.16
2022-11-12T04:38:00.399Z,102532.88
2022-11-12T04:41:04.265Z,102533.06
2022-11-12T04:44:08.528Z,102531.31
2022-11-12T04:46:55.556Z,102529.59
2022-11-12T04:49:42.709Z,102526.00
2022-11-12T04:52:30.367Z,102530.56
2022-11-12T04:55:18.992Z,102528.91
2022-11-12T04:58:06.000Z,102527.56
2022-11-12T05:00:53.208Z,102529.16
2022-11-12T05:03:40.185Z,102529.00
2022-11-12T05:06:44.415Z,102524.63
2022-11-12T05:09:31.609Z,102523.25
2022-11-12T05:12:20.322Z,102522.41
2022-11-12T05:15:07.787Z,102521.53
2022-11-12T05:17:54.787Z,102531.50
2022-11-12T05:20:41.771Z,102524.53
2022-11-12T05:23:28.930Z,102525.38
2022-11-12T05:26:15.845Z,102526.41
2022-11-12T05:29:08.563Z,102527.19
2022-11-12T05:31:56.055Z,102528.13
2022-11-12T05:34:43.282Z,102531.91
2022-11-12T05:37:30.336Z,102530.94
2022-11-12T05:40:18.037Z,102533.78
2022-11-12T05:43:04.918Z,102525.63
2022-11-12T05:45:53.557Z,102515.44
2022-11-12T05:48:40.597Z,102514.28
2022-11-12T05:51:27.572Z,102516.16
2022-11-12T05:54:14.410Z,102522.34
2022-11-12T05:57:01.271Z,102519.53
2022-11-12T05:59:47.922Z,102517.56
2022-11-12T06:02:36.524Z,102518.59
2022-11-12T06:05:23.296Z,102521.50
2022-11-12T06:08:10.932Z,102524.31
2022-11-12T06:10:57.589Z,102528.78
2022-11-12T06:13:44.548Z,102524.38
2022-11-12T06:16:31.504Z,102524.59
2022-11-12T06:19:19.659Z,102521.31
2022-11-12T06:22:06.596Z,102524.13
2022-11-12T06:24:53.387Z,102526.00
2022-11-12T06:27:40.470Z,102524.28
2022-11-12T06:30:27.332Z,102512.00
2022-11-12T06:33:14.580Z,102534.34
2022-11-12T06:36:04.937Z,102521.06
2022-11-12T06:38:51.742Z,102527.38
2022-11-12T06:41:38.593Z,102518.38
2022-11-12T06:44:25.652Z,102526.16
2022-11-12T06:47:12.434Z,102522.56
2022-11-12T06:49:59.479Z,102531.41
2022-11-12T06:52:47.310Z,102526.78
2022-11-12T06:55:34.128Z,102526.63
2022-11-12T06:58:20.935Z,102521.22
2022-11-12T07:01:11.952Z,102518.72
2022-11-12T07:03:59.218Z,102520.03
2022-11-12T07:06:46.035Z,102539.31
2022-11-12T07:09:34.420Z,102533.91
2022-11-12T07:12:21.630Z,102540.00
2022-11-12T07:15:08.846Z,102529.91
2022-11-12T07:17:55.725Z,102534.72
2022-11-12T07:20:42.722Z,102536.13
2022-11-12T07:23:32.488Z,102539.94
2022-11-12T07:26:22.528Z,102536.50
2022-11-12T07:29:09.222Z,102529.88
2022-11-12T07:31:55.946Z,102541.72
2022-11-12T07:34:42.934Z,102537.63
2022-11-12T07:37:29.762Z,102541.03
2022-11-12T07:40:16.909Z,102538.19
2022-11-12T07:43:05.206Z,102540.28
2022-11-12T07:45:52.294Z,102534.16
2022-11-12T07:48:41.484Z,102503.78
2022-11-12T07:51:29.853Z,102529.94
2022-11-12T07:54:16.936Z,102534.81
2022-11-12T07:57:04.039Z,102535.09
2022-11-12T07:59:52.025Z,102534.56
2022-11-12T08:02:38.840Z,102530.97
2022-11-12T08:05:25.681Z,102530.75
2022-11-12T08:08:12.814Z,102534.66
2022-11-12T08:11:00.762Z,102536.69
2022-11-12T08:13:47.523Z,102529.75
2022-11-12T08:16:35.621Z,102530.94
2022-11-12T08:19:22.816Z,102527.09
2022-11-12T08:22:09.514Z,102532.00
2022-11-12T08:24:56.264Z,102526.09
2022-11-12T08:27:43.120Z,102525.94
2022-11-12T08:30:30.884Z,102525.06
2022-11-12T08:33:19.202Z,102517.75
2022-11-12T08:36:07.345Z,102515.03
2022-11-12T08:38:54.676Z,102510.34
2022-11-12T08:41:41.537Z,102514.56
2022-11-12T08:44:28.266Z,102515.31
2022-11-12T08:47:14.925Z,102510.63
2022-11-12T08:50:03.120Z,102505.91
2022-11-12T08:52:50.470Z,102505.09
2022-11-12T08:55:38.197Z,102494.72
2022-11-12T08:58:25.527Z,102465.28
2022-11-12T09:01:12.454Z,102499.63
2022-11-12T09:03:59.364Z,102496.59
2022-11-12T09:06:52.673Z,102497.22
2022-11-12T09:09:41.032Z,102496.13
2022-11-12T09:12:27.868Z,102502.94
2022-11-12T09:18:21.764Z,102504.16
2022-11-12T09:21:11.326Z,102500.75
2022-11-12T09:23:59.297Z,102499.28
2022-11-12T09:26:45.997Z,102502.31
2022-11-12T09:29:32.975Z,102506.22
2022-11-12T09:32:20.115Z,102499.25
2022-11-12T09:35:07.842Z,102500.72
2022-11-12T09:37:54.733Z,102491.38
2022-11-12T09:40:56.136Z,102485.50
2022-11-12T09:43:48.948Z,102493.22
2022-11-12T09:46:41.580Z,102487.59
2022-11-12T09:49:33.136Z,102492.81
2022-11-12T09:52:25.583Z,102491.41
2022-11-12T09:55:19.234Z,102488.81
2022-11-12T09:58:12.344Z,102496.41
2022-11-12T10:01:04.512Z,102497.47
2022-11-12T10:04:01.238Z,102463.63
2022-11-12T10:06:56.493Z,102493.28
2022-11-12T10:09:55.711Z,102487.78
2022-11-12T10:12:56.343Z,102489.69
2022-11-12T10:16:17.289Z,102486.75
2022-11-12T10:19:31.198Z,102473.72
2022-11-12T10:22:29.334Z,102475.03
2022-11-12T10:25:18.830Z,102481.72
2022-11-12T10:28:25.951Z,102458.81
2022-11-12T10:31:16.303Z,102457.44
2022-11-12T10:34:17.201Z,102434.97
2022-11-12T10:37:07.010Z,102452.06
2022-11-12T10:39:54.557Z,102446.16
2022-11-12T10:42:58.263Z,102433.41
2022-11-12T10:45:45.386Z,102431.03
2022-11-12T10:48:35.197Z,102432.03
2022-11-12T10:51:28.124Z,102416.03
2022-11-12T10:54:29.381Z,102410.94
2022-11-12T10:57:24.856Z,102408.59
2022-11-12T11:00:21.494Z,102404.34
2022-11-12T11:03:25.073Z,102403.66
2022-11-12T11:06:24.073Z,102398.69
2022-11-12T11:09:17.572Z,102399.00
2022-11-12T11:12:05.032Z,102383.94
2022-11-12T11:15:08.485Z,102377.69
2022-11-12T11:17:56.397Z,102379.56
2022-11-12T11:20:48.803Z,102376.81
2022-11-12T11:23:48.260Z,102375.13
2022-11-12T11:26:48.930Z,102369.16
2022-11-12T11:30:07.106Z,102339.34
2022-11-12T11:33:17.048Z,102365.28
2022-11-12T11:36:16.158Z,102366.69
2022-11-12T11:39:13.478Z,102360.59
2022-11-12T11:42:14.848Z,102355.63
2022-11-12T11:45:13.752Z,102353.50
2022-11-12T11:48:14.190Z,102340.22
2022-11-12T11:51:09.079Z,102340.50
2022-11-12T11:54:04.244Z,102335.81
2022-11-12T11:56:57.449Z,102328.09
2022-11-12T11:59:57.163Z,102322.13
2022-11-12T12:03:07.197Z,102321.69
2022-11-12T12:06:10.041Z,102317.78
2022-11-12T12:09:08.077Z,102307.69
2022-11-12T12:12:02.687Z,102298.00
2022-11-12T12:14:59.426Z,102304.66
2022-11-12T12:18:01.708Z,102288.13
2022-11-12T12:20:58.735Z,102280.88
2022-11-12T12:23:50.300Z,102282.28
2022-11-12T12:26:41.873Z,102278.09
2022-11-12T12:29:35.851Z,102266.81
2022-11-12T12:32:28.322Z,102263.50
2022-11-12T12:35:23.977Z,102250.69
2022-11-12T12:38:19.048Z,102248.53
2022-11-12T12:41:14.997Z,102209.00
2022-11-12T12:44:05.877Z,102244.06
2022-11-12T12:46:58.559Z,102237.50
2022-11-12T12:49:49.075Z,102233.31
2022-11-12T12:53:03.774Z,102233.88
2022-11-12T12:55:52.677Z,102232.72
2022-11-12T12:58:45.265Z,102229.22
2022-11-12T13:01:35.391Z,102182.25
2022-11-12T13:04:51.824Z,102212.03
2022-11-12T13:07:43.069Z,102219.13
2022-11-12T13:10:48.153Z,102207.00
2022-11-12T13:13:36.701Z,102206.16
2022-11-12T13:16:57.800Z,102197.03
2022-11-12T13:20:08.045Z,102193.63
2022-11-12T13:22:55.281Z,102179.09
2022-11-12T13:25:42.246Z,102174.06
2022-11-12T13:28:29.385Z,102177.28
2022-11-12T13:31:29.163Z,102176.44
2022-11-12T13:34:24.207Z,102170.03
2022-11-12T13:37:21.684Z,102163.38
2022-11-12T13:40:14.373Z,102165.78
2022-11-12T13:43:08.944Z,102158.50
2022-11-12T13:46:00.533Z,102152.78
2022-11-12T13:48:49.711Z,102151.78
2022-11-12T13:51:41.100Z,102109.03
2022-11-12T13:54:35.055Z,102148.06
2022-11-12T13:57:30.331Z,102032.00
2022-11-12T14:00:26.524Z,102134.22
2022-11-12T14:03:19.711Z,102137.59
2022-11-12T14:06:16.492Z,102135.91
2022-11-12T14:09:34.316Z,102131.50
2022-11-12T14:12:43.616Z,102128.78
2022-11-12T14:15:43.801Z,102130.50
2022-11-12T14:18:43.236Z,102137.59
2022-11-12T14:21:31.134Z,102129.66
2022-11-12T14:24:17.961Z,102130.50
2022-11-12T14:27:04.749Z,102120.69
2022-11-12T14:30:07.116Z,102038.22
2022-11-12T14:32:58.614Z,102126.09
2022-11-12T14:35:46.153Z,102116.44
2022-11-12T14:38:38.230Z,102121.00
2022-11-12T14:41:27.351Z,102118.59
2022-11-12T14:44:19.547Z,102115.22
2022-11-12T14:47:07.899Z,102108.41
2022-11-12T14:49:55.181Z,102098.75
2022-11-12T14:52:46.403Z,102077.19
2022-11-12T14:55:37.522Z,102099.09
2022-11-12T14:58:27.107Z,102097.69
2022-11-12T15:04:42.113Z,102089.03
2022-11-12T15:07:30.880Z,102026.38
2022-11-12T15:10:35.214Z,102078.16
2022-11-12T15:13:25.164Z,102070.66
2022-11-12T15:16:19.857Z,102078.41
2022-11-12T15:19:21.019Z,102076.16
2022-11-12T15:22:20.958Z,102065.28
2022-11-12T15:25:13.562Z,102063.06
2022-11-12T15:28:14.288Z,102059.31
2022-11-12T15:31:03.762Z,102054.22
2022-11-12T15:33:50.513Z,102049.13
2022-11-12T15:36:37.482Z,102052.13
2022-11-12T15:39:27.525Z,102047.34
2022-11-12T15:42:18.274Z,102048.38
2022-11-12T15:45:13.617Z,102041.72
2022-11-12T15:48:00.664Z,102032.72
2022-11-12T15:50:48.343Z,102012.88
2022-11-12T15:53:35.397Z,102023.22
2022-11-12T15:56:23.624Z,102022.16
2022-11-12T15:59:16.218Z,102025.63
2022-11-12T16:02:03.137Z,102025.72
2022-11-12T16:04:50.018Z,102019.09
2022-11-12T16:07:37.047Z,102022.34
2022-11-12T16:10:24.764Z,101980.38
2022-11-12T16:13:17.766Z,102013.56
2022-11-12T16:16:08.623Z,101988.03
2022-11-12T16:18:55.722Z,102008.31
2022-11-12T16:21:42.897Z,102007.34
2022-11-12T16:24:29.675Z,102002.31
2022-11-12T16:27:17.889Z,101995.13
2022-11-12T16:30:07.887Z,102001.81
2022-11-12T16:32:54.965Z,101997.88
2022-11-12T16:35:42.313Z,101997.59
2022-11-12T16:38:30.142Z,101993.97
2022-11-12T16:41:16.814Z,102001.34
2022-11-12T16:44:03.654Z,101991.59
2022-11-12T16:46:51.832Z,101993.19
2022-11-12T16:49:39.103Z,101995.22
2022-11-12T16:52:26.029Z,101996.06
2022-11-12T16:55:12.920Z,101997.38
2022-11-12T16:57:59.812Z,101992.28
2022-11-12T17:00:51.183Z,101996.25
2022-11-12T17:03:39.173Z,101990.03
2022-11-12T17:06:34.041Z,101990.31
2022-11-12T17:09:20.869Z,101984.81
2022-11-12T17:12:07.894Z,101989.47
2022-11-12T17:14:54.704Z,101986.78
2022-11-12T17:17:41.813Z,101984.09
2022-11-12T17:20:30.077Z,101988.34
2022-11-12T17:23:17.043Z,101988.88
2022-11-12T17:26:06.011Z,101984.19
2022-11-12T17:29:00.091Z,101988.69
2022-11-12T17:31:49.313Z,101993.25
2022-11-12T17:34:36.537Z,101995.34
2022-11-12T17:37:25.415Z,101996.75
2022-11-12T17:40:12.926Z,102005.22
2022-11-12T17:43:00.653Z,102000.44
2022-11-12T17:45:51.146Z,101999.25
2022-11-12T17:48:39.091Z,102006.03
2022-11-12T17:51:27.818Z,101998.94
2022-11-12T17:54:16.281Z,102003.75
2022-11-12T17:57:03.149Z,102007.41
2022-11-12T17:59:49.924Z,102010.97
2022-11-12T18:02:36.559Z,102017.19
2022-11-12T18:05:23.473Z,102011.63
2022-11-12T18:08:10.204Z,102014.91
2022-11-12T18:10:58.549Z,102018.78
2022-11-12T18:13:45.296Z,102017.00
2022-11-12T18:16:31.990Z,102014.88
2022-11-12T18:19:19.340Z,102004.38
2022-11-12T18:22:06.201Z,101994.75
2022-11-12T18:24:53.158Z,101995.47
2022-11-12T18:27:41.256Z,101992.94
2022-11-12T18:30:28.278Z,101999.06
2022-11-12T18:33:15.585Z,102005.81
2022-11-12T18:36:03.609Z,102007.84
2022-11-12T18:38:50.912Z,102004.94
2022-11-12T18:41:37.970Z,102005.72
2022-11-12T18:44:26.417Z,102003.56
2022-11-12T18:47:14.193Z,101997.72
2022-11-12T18:50:05.663Z,102001.53
2022-11-12T18:52:55.383Z,102006.28
2022-11-12T18:55:42.228Z,102007.63
2022-11-12T18:58:35.168Z,102001.69
2022-11-12T19:01:25.837Z,102008.00
2022-11-12T19:04:12.930Z,101976.38
2022-11-12T19:06:59.841Z,102000.03
2022-11-12T19:09:46.657Z,102005.38
2022-11-12T19:12:33.550Z,102004.16
2022-11-12T19:15:25.545Z,101996.84
2022-11-12T19:18:15.271Z,101999.91
2022-11-12T19:21:03.794Z,101991.50
2022-11-12T19:23:53.989Z,101987.25
2022-11-12T19:26:41.445Z,101990.28
2022-11-12T19:29:28.197Z,101989.56
2022-11-12T19:32:14.963Z,101991.47
2022-11-12T19:35:03.448Z,101988.59
2022-11-12T19:37:50.789Z,101985.06
2022-11-12T19:40:37.827Z,101977.97
2022-11-12T19:43:25.012Z,101977.50
2022-11-12T19:46:13.005Z,101972.41
2022-11-12T19:49:00.359Z,101963.63
2022-11-12T19:51:48.527Z,101963.50
2022-11-12T19:54:35.354Z,101965.19
2022-11-12T19:57:23.021Z,101966.19
2022-11-12T20:00:11.397Z,101963.50
2022-11-12T20:02:59.636Z,101961.78
2022-11-12T20:05:46.755Z,101972.75
2022-11-12T20:08:35.325Z,101974.09
2022-11-12T20:11:22.516Z,101966.97
2022-11-12T20:14:09.230Z,101972.69
2022-11-12T20:16:56.282Z,101964.03
2022-11-12T20:19:43.314Z,101954.41
2022-11-12T20:22:32.390Z,101952.84
2022-11-12T20:25:20.764Z,101950.66
2022-11-12T20:28:09.957Z,101953.34
2022-11-12T20:31:01.911Z,101947.25
2022-11-12T20:33:50.039Z,101944.59
2022-11-12T20:36:37.754Z,101947.50
2022-11-12T20:39:24.806Z,101949.81
2022-11-12T20:42:13.274Z,101940.44
2022-11-12T20:45:00.100Z,101936.78
2022-11-12T20:47:47.084Z,101939.56
2022-11-12T20:50:34.145Z,101941.63
2022-11-12T20:53:21.157Z,101954.56
2022-11-12T20:56:10.326Z,101954.06
2022-11-12T20:58:58.673Z,101950.66
2022-11-12T21:01:45.528Z,101953.56
2022-11-12T21:04:32.452Z,101954.44
2022-11-12T21:07:19.277Z,101957.84
2022-11-12T21:10:06.789Z,101955.03
2022-11-12T21:12:53.529Z,101953.22
2022-11-12T21:15:46.033Z,101956.75
2022-11-12T21:18:35.386Z,101940.66
2022-11-12T21:21:23.290Z,101951.97
2022-11-12T21:24:14.327Z,101947.00
2022-11-12T21:27:06.248Z,101947.56
2022-11-12T21:29:53.139Z,101943.94
2022-11-12T21:32:41.519Z,101944.31
2022-11-12T21:35:28.286Z,101952.22
2022-11-12T21:38:15.141Z,101952.69
2022-11-12T21:41:06.052Z,101953.78
2022-11-12T21:43:52.793Z,101960.22
2022-11-12T21:46:40.573Z,101956.19
2022-11-12T21:49:28.903Z,101953.00
2022-11-12T21:52:16.237Z,101951.53
2022-11-12T21:55:03.323Z,101949.72
2022-11-12T21:57:50.112Z,101936.44
2022-11-12T22:00:42.047Z,101921.38
2022-11-12T22:03:31.502Z,101908.34
2022-11-12T22:06:21.279Z,101914.81
2022-11-12T22:09:08.234Z,101902.41
2022-11-12T22:11:55.206Z,101895.63
2022-11-12T22:14:43.197Z,101894.16
2022-11-12T22:17:30.268Z,101903.41
2022-11-12T22:20:17.730Z,101899.53
2022-11-12T22:23:06.120Z,101891.50
2022-11-12T22:25:54.430Z,101894.66
2022-11-12T22:28:41.538Z,101847.66
2022-11-12T22:31:29.669Z,101889.78
2022-11-12T22:34:16.521Z,101889.03
2022-11-12T22:37:03.636Z,101887.22
2022-11-12T22:39:52.138Z,101884.69
2022-11-12T22:42:39.151Z,101877.00
2022-11-12T22:45:25.729Z,101878.38
2022-11-12T22:48:12.488Z,101873.75
2022-11-12T22:51:00.681Z,101867.44
2022-11-12T22:53:47.782Z,101867.53
2022-11-12T22:56:36.906Z,101863.03
2022-11-12T22:59:24.054Z,101856.59
2022-11-12T23:02:10.814Z,101865.94
2022-11-12T23:04:57.812Z,101866.16
2022-11-12T23:07:44.704Z,101844.00
2022-11-12T23:10:32.071Z,101855.47
2022-11-12T23:13:20.463Z,101855.00
2022-11-12T23:16:08.589Z,101851.25
2022-11-12T23:18:55.988Z,101863.75
2022-11-12T23:21:43.100Z,101860.69
2022-11-12T23:24:29.846Z,101860.09
2022-11-12T23:27:17.075Z,101847.69
2022-11-12T23:30:06.138Z,101837.09
2022-11-12T23:32:52.764Z,101838.41
2022-11-12T23:35:39.882Z,101840.81
2022-11-12T23:38:27.147Z,101823.81
2022-11-12T23:41:17.089Z,101820.88
2022-11-12T23:44:04.323Z,101818.78
2022-11-12T23:46:52.713Z,101823.72
2022-11-12T23:49:39.871Z,101819.63
2022-11-12T23:52:26.919Z,101808.06
2022-11-12T23:55:13.810Z,101803.69
2022-11-12T23:58:01.321Z,101801.38
